Time;durP1;ratioP1;P1;durP2;ratioP2;P2;SDS_P1;SDS_P2;PMS_P1;PMS_P2;Temp;Humidity;BMP_temperature;BMP_pressure;BME280_temperature;BME280_humidity;BME280_pressure;Samples;Min_cycle;Max_cycle;Signal;HPM_P1;HPM_P2
2022/05/01 00:02:14;;;;;;;6.85;6.18;;;;;;;8.05;71.45;102671.50;5040004;28;20052;-79
2022/05/01 00:04:39;;;;;;;6.65;6.15;;;;;;;8.03;71.43;102673.22;5024132;28;20068;-79
2022/05/01 00:07:05;;;;;;;7.30;6.30;;;;;;;8.01;71.48;102669.75;5023672;28;20052;-79
2022/05/01 00:09:30;;;;;;;6.18;5.65;;;;;;;8.00;71.38;102667.16;5058008;28;20040;-79
2022/05/01 00:11:56;;;;;;;7.40;6.80;;;;;;;7.98;71.59;102663.69;5040102;28;20206;-79
2022/05/01 00:14:22;;;;;;;9.25;6.60;;;;;;;7.95;71.59;102664.56;5023105;28;20021;-79
2022/05/01 00:16:49;;;;;;;6.75;6.05;;;;;;;7.93;71.54;102665.41;5058285;28;20072;-79
2022/05/01 00:19:14;;;;;;;6.78;6.07;;;;;;;7.91;71.66;102665.41;5039835;28;20029;-79
2022/05/01 00:21:40;;;;;;;9.07;6.50;;;;;;;7.90;71.61;102660.22;5040277;28;20044;-79
2022/05/01 00:24:06;;;;;;;7.70;7.00;;;;;;;7.87;71.63;102663.69;5039846;28;20040;-78
2022/05/01 00:26:32;;;;;;;7.43;6.82;;;;;;;7.84;71.46;102667.16;5039585;28;20040;-79
2022/05/01 00:28:58;;;;;;;7.82;6.78;;;;;;;7.83;71.51;102668.03;5058202;28;20036;-79
2022/05/01 00:31:23;;;;;;;7.28;6.57;;;;;;;7.80;71.42;102664.53;5038571;28;20041;-79
2022/05/01 00:36:33;;;;;;;7.53;6.25;;;;;;;7.77;71.28;102668.03;5057327;28;20039;-79
2022/05/01 00:39:02;;;;;;;6.47;5.88;;;;;;;7.75;71.74;102661.94;5057608;28;20067;-79
2022/05/01 00:41:32;;;;;;;6.50;5.90;;;;;;;7.72;71.63;102659.34;5056915;28;20047;-79
2022/05/01 00:43:58;;;;;;;6.85;6.32;;;;;;;7.71;71.78;102654.13;5057475;28;20037;-79
2022/05/01 00:46:24;;;;;;;7.70;7.00;;;;;;;7.69;71.56;102651.50;5057110;28;20028;-79
2022/05/01 00:48:50;;;;;;;7.32;6.68;;;;;;;7.66;71.66;102651.53;5039713;28;20214;-79
2022/05/01 00:51:16;;;;;;;7.32;6.63;;;;;;;7.64;71.78;102655.84;5039288;28;20079;-78
2022/05/01 00:53:43;;;;;;;7.78;6.50;;;;;;;7.62;71.83;102649.75;5022977;28;20099;-79
2022/05/01 00:56:08;;;;;;;7.40;6.57;;;;;;;7.61;71.76;102648.03;5023271;28;20247;-79
2022/05/01 00:58:34;;;;;;;8.15;6.93;;;;;;;7.59;71.90;102644.56;5057073;28;20040;-79
2022/05/01 01:04:22;;;;;;;7.80;7.10;;;;;;;7.54;71.91;102641.06;5058184;28;20044;-79
2022/05/01 01:06:48;;;;;;;6.13;5.70;;;;;;;7.51;71.80;102641.94;5057250;28;20106;-79
2022/05/01 01:09:15;;;;;;;6.60;5.90;;;;;;;7.49;71.83;102641.94;5039066;28;20037;-79
2022/05/01 01:11:42;;;;;;;7.57;6.78;;;;;;;7.47;71.84;102641.06;5039556;28;20029;-79
2022/05/01 01:14:08;;;;;;;7.28;6.68;;;;;;;7.46;71.95;102638.47;5039586;28;20093;-79
2022/05/01 01:16:36;;;;;;;7.72;6.70;;;;;;;7.43;71.86;102630.63;5056507;28;20047;-79
2022/05/01 01:19:07;;;;;;;7.35;6.65;;;;;;;7.42;71.90;102632.38;5057321;28;20025;-79
2022/05/01 01:21:33;;;;;;;7.97;6.80;;;;;;;7.41;71.92;102637.59;5038592;28;20239;-79
2022/05/01 01:24:01;;;;;;;7.80;6.70;;;;;;;7.39;71.99;102639.31;5039648;28;20324;-79
2022/05/01 01:26:28;;;;;;;7.05;6.35;;;;;;;7.37;71.96;102638.44;5056629;28;20029;-78
2022/05/01 01:28:55;;;;;;;8.32;7.30;;;;;;;7.35;72.01;102634.94;5038815;28;20063;-79
2022/05/01 01:31:41;;;;;;;9.63;7.10;;;;;;;7.33;72.07;102637.59;5056585;28;20037;-79
2022/05/01 01:34:10;;;;;;;8.38;7.35;;;;;;;7.30;72.01;102638.44;5025118;28;20041;-79
2022/05/01 01:36:37;;;;;;;8.10;7.30;;;;;;;7.29;71.96;102628.00;5056428;28;20087;-78
2022/05/01 01:39:03;;;;;;;7.40;6.70;;;;;;;7.27;71.86;102632.34;5056864;28;20040;-78
2022/05/01 01:41:30;;;;;;;7.18;6.47;;;;;;;7.24;72.09;102633.22;5022105;28;20130;-79
2022/05/01 01:43:57;;;;;;;7.15;6.45;;;;;;;7.23;71.93;102621.03;5042587;28;20107;-78
2022/05/01 01:46:22;;;;;;;7.95;7.05;;;;;;;7.21;72.00;102632.34;5042496;28;20036;-79
2022/05/01 01:48:48;;;;;;;8.45;6.88;;;;;;;7.20;72.11;102625.38;5060550;28;20037;-78
2022/05/01 01:51:14;;;;;;;7.72;6.93;;;;;;;7.18;72.08;102627.13;5060586;28;20258;-78
2022/05/01 01:53:40;;;;;;;7.68;6.90;;;;;;;7.16;72.22;102626.25;5060664;28;20029;-78
2022/05/01 01:56:09;;;;;;;10.07;7.22;;;;;;;7.16;72.20;102641.88;5042573;28;20071;-78
2022/05/01 01:58:36;;;;;;;7.03;6.40;;;;;;;7.12;72.27;102633.19;5026156;28;20235;-79
2022/05/01 02:01:04;;;;;;;7.65;6.85;;;;;;;7.11;72.19;102634.94;5026079;28;20135;-78
2022/05/01 02:03:29;;;;;;;7.50;6.80;;;;;;;7.09;72.17;102630.56;5059960;28;20035;-79
2022/05/01 02:05:55;;;;;;;7.25;6.55;;;;;;;7.07;72.12;102630.56;5042466;28;20056;-78
2022/05/01 02:08:21;;;;;;;7.38;6.68;;;;;;;7.06;72.23;102628.84;5025409;28;20021;-78
2022/05/01 02:10:49;;;;;;;7.38;6.63;;;;;;;7.05;72.31;102629.69;5026256;28;20252;-79
2022/05/01 02:13:16;;;;;;;7.60;6.80;;;;;;;7.02;72.34;102624.50;5060223;28;20040;-78
2022/05/01 02:15:41;;;;;;;8.25;6.30;;;;;;;7.02;72.41;102623.59;5042293;28;20373;-79
2022/05/01 02:18:07;;;;;;;7.82;7.15;;;;;;;7.00;72.46;102620.97;5042182;28;20083;-79
2022/05/01 02:23:20;;;;;;;7.28;6.57;;;;;;;6.97;72.51;102620.09;5044674;28;20074;-79
2022/05/01 02:25:47;;;;;;;6.88;6.22;;;;;;;6.96;72.36;102624.44;5060107;28;20626;-78
2022/05/01 02:28:12;;;;;;;6.50;5.90;;;;;;;6.95;72.47;102621.84;5059839;28;20564;-78
2022/05/01 02:30:39;;;;;;;7.68;6.82;;;;;;;6.93;72.48;102616.66;5059673;28;20044;-78
2022/05/01 02:33:06;;;;;;;7.90;7.13;;;;;;;6.90;72.43;102612.28;5059782;28;20061;-78
2022/05/01 02:35:32;;;;;;;8.07;7.20;;;;;;;6.89;72.47;102612.28;5025104;28;20033;-79
2022/05/01 02:37:59;;;;;;;8.07;7.10;;;;;;;6.88;72.62;102608.81;5059517;28;20079;-78
2022/05/01 02:40:24;;;;;;;10.63;8.00;;;;;;;6.86;72.58;102604.47;5059703;28;20084;-78
2022/05/01 02:42:49;;;;;;;9.52;8.48;;;;;;;6.84;72.59;102601.84;5025314;28;20101;-78
2022/05/01 02:45:15;;;;;;;9.63;7.97;;;;;;;6.81;72.51;102599.22;5041460;28;20055;-78
2022/05/01 02:47:40;;;;;;;11.65;8.90;;;;;;;6.82;72.49;102607.91;5059691;28;20033;-78
2022/05/01 02:50:07;;;;;;;9.65;8.50;;;;;;;6.80;72.66;102601.81;5041600;28;20316;-78
2022/05/01 02:52:32;;;;;;;9.07;8.18;;;;;;;6.78;72.62;102604.41;5041037;28;20040;-78
2022/05/01 02:54:58;;;;;;;9.45;8.32;;;;;;;6.77;72.71;102599.19;5040538;28;20314;-78
2022/05/01 02:57:23;;;;;;;8.77;7.88;;;;;;;6.75;72.71;102599.22;5058979;28;20290;-78
2022/05/01 02:59:48;;;;;;;9.63;8.18;;;;;;;6.73;72.75;102594.00;5042028;28;20033;-78
2022/05/01 03:02:15;;;;;;;9.73;8.10;;;;;;;6.72;72.73;102597.47;5059009;28;20041;-78
2022/05/01 03:04:40;;;;;;;8.93;8.02;;;;;;;6.72;72.87;102601.81;5059107;28;20037;-78
2022/05/01 03:07:07;;;;;;;9.23;8.38;;;;;;;6.70;72.67;102600.94;5041380;28;20017;-78
2022/05/01 03:09:34;;;;;;;9.50;8.52;;;;;;;6.67;72.65;102591.38;5040933;28;20041;-78
2022/05/01 03:11:59;;;;;;;9.98;8.23;;;;;;;6.67;72.82;102587.91;5041240;28;20352;-78
2022/05/01 03:14:25;;;;;;;8.93;7.68;;;;;;;6.65;72.71;102585.28;5058849;28;20379;-78
2022/05/01 03:16:50;;;;;;;9.63;8.48;;;;;;;6.64;72.86;102580.97;5059302;28;20363;-78
2022/05/01 03:22:15;;;;;;;9.65;8.10;;;;;;;6.61;72.66;102587.88;5044138;28;20099;-78
2022/05/01 03:24:41;;;;;;;9.55;8.60;;;;;;;6.59;72.66;102584.41;5026220;28;20028;-78
2022/05/01 03:27:07;;;;;;;8.90;8.00;;;;;;;6.56;72.78;102582.66;5041480;28;20039;-78
2022/05/01 03:29:33;;;;;;;9.15;8.25;;;;;;;6.55;72.88;102588.75;5058156;28;20041;-78
2022/05/01 03:31:59;;;;;;;10.27;8.50;;;;;;;6.53;72.81;102588.72;5058819;28;20040;-78
2022/05/01 03:34:26;;;;;;;8.48;7.57;;;;;;;6.52;72.85;102579.16;5040193;28;20116;-78
2022/05/01 03:36:53;;;;;;;7.97;7.20;;;;;;;6.52;72.87;102583.50;5058861;28;20033;-78
2022/05/01 03:39:20;;;;;;;8.65;7.75;;;;;;;6.50;72.86;102585.25;5058294;28;20028;-78
2022/05/01 03:41:45;;;;;;;9.32;8.43;;;;;;;6.48;72.79;102586.97;5058610;28;20032;-78
2022/05/01 03:44:11;;;;;;;10.60;8.00;;;;;;;6.46;72.86;102586.09;5041033;28;20045;-78
2022/05/01 03:46:38;;;;;;;11.50;8.70;;;;;;;6.45;72.74;102579.13;5040134;28;20037;-78
2022/05/01 03:49:04;;;;;;;9.02;7.55;;;;;;;6.44;72.96;102585.19;5040524;28;20053;-78
2022/05/01 03:51:31;;;;;;;11.48;7.50;;;;;;;6.42;72.92;102580.00;5040281;28;20063;-78
2022/05/01 03:53:58;;;;;;;8.00;7.20;;;;;;;6.41;72.89;102580.00;5040952;28;20048;-78
2022/05/01 03:56:24;;;;;;;7.03;6.40;;;;;;;6.40;72.90;102575.63;5040303;28;20036;-78
2022/05/01 03:58:50;;;;;;;6.43;5.93;;;;;;;6.39;73.03;102576.53;5058499;28;20044;-78
2022/05/01 04:01:15;;;;;;;5.82;5.32;;;;;;;6.37;72.92;102579.13;5023584;28;20032;-78
2022/05/01 04:03:40;;;;;;;6.97;6.28;;;;;;;6.36;72.91;102581.69;5023789;28;20045;-78
2022/05/01 04:06:06;;;;;;;7.57;6.78;;;;;;;6.36;72.89;102576.50;5057879;28;20037;-78
2022/05/01 04:08:31;;;;;;;7.05;6.45;;;;;;;6.33;72.94;102579.94;5039754;28;20052;-78
2022/05/01 04:10:56;;;;;;;7.68;6.88;;;;;;;6.32;72.97;102573.88;5040541;28;20322;-78
2022/05/01 04:13:22;;;;;;;9.38;7.68;;;;;;;6.30;72.98;102575.59;5023211;28;20028;-78
2022/05/01 04:15:47;;;;;;;9.10;7.35;;;;;;;6.29;73.17;102576.47;5057910;28;20033;-78
2022/05/01 04:18:13;;;;;;;9.75;7.93;;;;;;;6.29;73.19;102578.19;5057894;28;20044;-78
2022/05/01 04:20:38;;;;;;;7.60;6.90;;;;;;;6.28;73.16;102581.66;5040049;28;20340;-78
2022/05/01 04:23:08;;;;;;;8.35;7.53;;;;;;;6.27;73.21;102578.19;5039895;28;20090;-78
2022/05/01 04:25:35;;;;;;;7.18;6.47;;;;;;;6.26;73.04;102573.84;5057420;28;20052;-78
2022/05/01 04:28:10;;;;;;;9.13;7.45;;;;;;;6.26;73.01;102578.19;5039787;28;20037;-78
2022/05/01 04:30:36;;;;;;;10.63;7.97;;;;;;;6.25;73.14;102584.25;5039562;28;20052;-78
2022/05/01 04:33:15;;;;;;;9.55;7.82;;;;;;;6.23;73.07;102576.44;5039725;28;20275;-78
2022/05/01 04:35:46;;;;;;;10.77;8.02;;;;;;;6.24;73.33;102579.91;5039520;28;20032;-78
2022/05/01 04:38:13;;;;;;;9.48;8.05;;;;;;;6.23;73.36;102580.78;5057829;28;20040;-78
2022/05/01 04:40:42;;;;;;;9.25;8.00;;;;;;;6.21;73.29;102580.75;5039499;28;20029;-78
2022/05/01 04:43:09;;;;;;;7.90;7.13;;;;;;;6.22;73.36;102586.81;5057403;28;20072;-78
2022/05/01 04:45:37;;;;;;;9.07;6.95;;;;;;;6.21;73.36;102579.91;5057145;28;20102;-78
2022/05/01 04:48:03;;;;;;;7.75;7.05;;;;;;;6.21;73.43;102583.34;5039400;28;20095;-78
2022/05/01 04:50:29;;;;;;;8.65;7.60;;;;;;;6.22;73.38;102579.03;5039149;28;20033;-78
2022/05/01 04:52:56;;;;;;;7.63;6.90;;;;;;;6.21;73.65;102583.34;5057272;28;20032;-78
2022/05/01 04:55:21;;;;;;;12.88;7.97;;;;;;;6.21;73.47;102580.75;5056905;28;20060;-78
2022/05/01 04:57:47;;;;;;;8.27;7.40;;;;;;;6.22;73.67;102584.22;5039581;28;20075;-78
2022/05/01 05:00:13;;;;;;;9.63;7.68;;;;;;;6.23;73.75;102594.66;5039306;28;20032;-78
2022/05/01 05:02:44;;;;;;;9.15;7.43;;;;;;;6.23;73.79;102592.03;5057254;28;20033;-78
2022/05/01 05:05:11;;;;;;;8.15;7.35;;;;;;;6.25;73.88;102592.06;5039730;28;20091;-78
2022/05/01 05:07:37;;;;;;;7.90;7.18;;;;;;;6.26;73.74;102597.28;5038649;28;20309;-78
2022/05/01 05:10:04;;;;;;;8.88;7.68;;;;;;;6.28;73.98;102597.28;5039751;28;20039;-78
2022/05/01 05:12:30;;;;;;;8.30;7.50;;;;;;;6.29;73.99;102602.50;5056711;28;20049;-78
2022/05/01 05:14:57;;;;;;;9.30;7.97;;;;;;;6.30;74.01;102603.38;5039269;28;20032;-78
2022/05/01 05:17:23;;;;;;;8.82;7.93;;;;;;;6.32;74.19;102606.84;5057757;28;20036;-78
2022/05/01 05:19:49;;;;;;;9.80;8.35;;;;;;;6.34;74.20;102613.78;5043294;28;20108;-78
2022/05/01 05:22:15;;;;;;;10.73;8.60;;;;;;;6.36;74.27;102610.31;5043065;28;20036;-78
2022/05/01 05:24:41;;;;;;;11.35;8.95;;;;;;;6.37;74.54;102606.84;5043227;28;20225;-78
2022/05/01 05:27:06;;;;;;;11.45;8.77;;;;;;;6.39;74.52;102607.75;5061419;28;20036;-78
2022/05/01 05:29:32;;;;;;;12.65;9.02;;;;;;;6.40;74.57;102610.34;5060621;28;20568;-78
2022/05/01 05:31:58;;;;;;;12.25;9.32;;;;;;;6.41;74.73;102608.63;5043324;28;20044;-78
2022/05/01 05:34:23;;;;;;;10.88;8.93;;;;;;;6.43;74.77;102607.75;5059501;28;20067;-78
2022/05/01 05:36:48;;;;;;;10.73;8.95;;;;;;;6.45;74.91;102612.97;5061175;28;20045;-78
2022/05/01 05:39:14;;;;;;;12.02;9.50;;;;;;;6.46;75.02;102613.00;5061184;28;20339;-78
2022/05/01 05:41:40;;;;;;;13.23;9.43;;;;;;;6.49;75.20;102617.31;5061095;28;20056;-78
2022/05/01 05:44:06;;;;;;;11.55;9.68;;;;;;;6.51;75.60;102623.41;5026590;28;20025;-78
2022/05/01 05:46:31;;;;;;;15.35;10.27;;;;;;;6.53;75.63;102629.47;5042818;28;20037;-78
2022/05/01 05:48:57;;;;;;;13.68;10.23;;;;;;;6.53;75.90;102626.88;5036256;28;20050;-78
2022/05/01 05:51:22;;;;;;;12.52;9.90;;;;;;;6.57;75.90;102631.25;5020702;28;20065;-78
2022/05/01 05:53:51;;;;;;;15.98;11.82;;;;;;;6.58;76.63;102638.19;5019888;28;20036;-78
2022/05/01 05:56:17;;;;;;;;;;;;;;;6.58;79.29;102637.31;5019831;28;20026;-78
2022/05/01 05:58:43;;;;;;;23.00;15.65;;;;;;;6.60;80.86;102638.19;5021156;28;19905;-78
2022/05/01 06:01:09;;;;;;;22.60;15.25;;;;;;;6.61;80.99;102635.63;5019588;28;20037;-78
2022/05/01 06:03:35;;;;;;;27.88;17.48;;;;;;;6.62;82.39;102639.97;5002810;28;20041;-78
2022/05/01 06:06:01;;;;;;;28.25;18.02;;;;;;;6.64;83.79;102640.84;5020013;28;20041;-78
2022/05/01 06:08:26;;;;;;;32.33;18.98;;;;;;;6.68;83.72;102645.19;5018994;28;20041;-78
2022/05/01 06:10:52;;;;;;;27.33;18.08;;;;;;;6.68;84.35;102642.59;5019342;28;20033;-78
2022/05/01 06:13:17;;;;;;;27.10;18.48;;;;;;;6.71;84.72;102644.31;5002479;28;20044;-78
2022/05/01 06:15:43;;;;;;;25.38;17.45;;;;;;;6.75;84.77;102642.59;5019334;28;20276;-78
2022/05/01 06:18:10;;;;;;;27.85;18.08;;;;;;;6.80;84.53;102646.97;5019108;28;20026;-78
2022/05/01 06:20:36;;;;;;;27.02;16.77;;;;;;;6.87;84.33;102647.88;5019144;28;20141;-78
2022/05/01 06:23:01;;;;;;;31.48;18.70;;;;;;;6.89;84.63;102641.81;5020329;28;20214;-78
2022/05/01 06:25:27;;;;;;;30.17;19.08;;;;;;;6.90;86.07;102645.28;5018593;28;20041;-78
2022/05/01 06:27:52;;;;;;;25.80;18.38;;;;;;;6.94;86.09;102639.22;5020260;28;20048;-78
2022/05/01 06:30:18;;;;;;;28.77;19.05;;;;;;;6.95;85.97;102638.34;5018800;28;20041;-78
2022/05/01 06:32:44;;;;;;;29.85;17.80;;;;;;;6.99;85.87;102647.06;5024583;28;20204;-78
2022/05/01 06:35:10;;;;;;;29.70;17.83;;;;;;;7.02;86.00;102636.63;5038312;28;20233;-78
2022/05/01 06:37:37;;;;;;;28.48;17.60;;;;;;;7.05;86.68;102634.03;5037466;28;20169;-78
2022/05/01 06:40:03;;;;;;;27.42;17.55;;;;;;;7.09;86.33;102640.97;5039696;28;20051;-78
2022/05/01 06:42:29;;;;;;;29.08;17.40;;;;;;;7.16;85.80;102637.53;5039073;28;20044;-78
2022/05/01 06:44:55;;;;;;;30.23;18.40;;;;;;;7.22;85.71;102636.66;5022018;28;20119;-78
2022/05/01 06:47:20;;;;;;;29.20;17.85;;;;;;;7.25;86.04;102634.06;5037819;28;20264;-78
2022/05/01 06:49:45;;;;;;;27.45;19.08;;;;;;;7.29;85.53;102630.59;5033211;28;20065;-78
2022/05/01 06:52:12;;;;;;;26.65;16.05;;;;;;;7.34;85.32;102636.69;5053946;28;20049;-78
2022/05/01 06:54:39;;;;;;;22.10;15.65;;;;;;;7.37;85.07;102635.81;5057978;28;20232;-78
2022/05/01 06:57:05;;;;;;;23.67;16.00;;;;;;;7.40;85.16;102636.69;5040620;28;20395;-78
2022/05/01 06:59:30;;;;;;;22.38;15.10;;;;;;;7.44;84.71;102632.34;5057817;28;20051;-78
2022/05/01 07:01:56;;;;;;;20.85;15.43;;;;;;;7.46;84.55;102626.28;5058278;28;20083;-78
2022/05/01 07:04:21;;;;;;;26.45;15.43;;;;;;;7.48;84.33;102627.16;5058562;28;20059;-78
2022/05/01 07:06:46;;;;;;;20.95;14.27;;;;;;;7.52;83.97;102629.78;5059143;28;20048;-78
2022/05/01 07:09:12;;;;;;;21.08;14.80;;;;;;;7.53;83.81;102635.00;5057877;28;20048;-78
2022/05/01 07:11:37;;;;;;;21.98;14.82;;;;;;;7.56;83.48;102639.34;5058791;28;20025;-78
2022/05/01 07:14:03;;;;;;;20.08;14.23;;;;;;;7.60;83.21;102633.25;5057543;28;20028;-78
2022/05/01 07:16:28;;;;;;;20.58;13.88;;;;;;;7.61;83.17;102628.03;5040566;28;20040;-78
2022/05/01 07:18:53;;;;;;;24.50;15.25;;;;;;;7.64;83.32;102627.16;5057557;28;20063;-78
2022/05/01 07:21:19;;;;;;;24.25;14.52;;;;;;;7.66;83.18;102630.66;5058734;28;20032;-78
2022/05/01 07:23:45;;;;;;;20.08;13.73;;;;;;;7.71;83.08;102638.47;5057901;28;20045;-78
2022/05/01 07:26:10;;;;;;;21.77;13.88;;;;;;;7.72;82.84;102630.66;5058017;28;20041;-78
2022/05/01 07:28:36;;;;;;;22.77;15.02;;;;;;;7.72;82.78;102628.03;5048723;28;20357;-78
2022/05/01 07:31:03;;;;;;;21.15;14.48;;;;;;;7.76;82.68;102626.31;5053814;28;20048;-78
2022/05/01 07:33:29;;;;;;;20.60;14.18;;;;;;;7.77;82.79;102634.13;5057591;28;20060;-78
2022/05/01 07:35:54;;;;;;;20.17;14.13;;;;;;;7.80;82.64;102626.28;5047793;28;20067;-78
2022/05/01 07:38:20;;;;;;;20.05;14.32;;;;;;;7.83;82.35;102633.25;5056817;28;20228;-78
2022/05/01 07:40:46;;;;;;;17.90;13.18;;;;;;;7.87;82.11;102635.84;5056588;28;20040;-78
2022/05/01 07:43:11;;;;;;;17.05;12.85;;;;;;;7.90;81.72;102632.38;5058396;28;20037;-78
2022/05/01 07:45:37;;;;;;;16.80;10.65;;;;;;;7.95;81.47;102634.97;5056634;28;20210;-78
2022/05/01 07:48:02;;;;;;;17.38;12.95;;;;;;;7.95;81.21;102633.25;5041067;28;20167;-78
2022/05/01 07:50:28;;;;;;;20.90;12.45;;;;;;;7.97;81.12;102621.06;5036305;28;20119;-78
2022/05/01 07:52:54;;;;;;;15.40;10.85;;;;;;;8.01;80.90;102629.75;5037562;28;20028;-78
2022/05/01 07:55:19;;;;;;;17.73;12.25;;;;;;;8.04;80.55;102625.41;5059434;28;20358;-78
2022/05/01 07:57:45;;;;;;;14.70;11.30;;;;;;;8.08;80.45;102629.75;5043879;28;20051;-78
2022/05/01 08:00:13;;;;;;;15.63;11.02;;;;;;;8.13;80.02;102632.34;5078237;28;20028;-78
2022/05/01 08:05:27;;;;;;;18.55;11.55;;;;;;;8.19;78.73;102621.91;5075254;28;20091;-78
2022/05/01 08:07:53;;;;;;;15.20;10.07;;;;;;;8.23;78.66;102626.22;5054462;28;20032;-79
2022/05/01 08:10:20;;;;;;;15.25;11.45;;;;;;;8.29;78.79;102617.50;5059502;28;20043;-78
2022/05/01 08:12:46;;;;;;;15.32;11.13;;;;;;;8.34;78.10;102620.13;5060187;28;20066;-78
2022/05/01 08:15:11;;;;;;;13.90;10.05;;;;;;;8.39;77.57;102616.63;5077767;28;20289;-79
2022/05/01 08:17:36;;;;;;;12.73;10.00;;;;;;;8.44;77.50;102616.63;5037120;28;20411;-78
2022/05/01 08:22:46;;;;;;;12.55;9.70;;;;;;;8.55;76.65;102614.88;5074375;28;20239;-78
2022/05/01 08:25:14;;;;;;;10.30;8.98;;;;;;;8.55;75.12;102606.13;5050063;28;20095;-78
2022/05/01 08:27:40;;;;;;;11.00;8.47;;;;;;;8.61;75.16;102617.44;5054337;28;20056;-79
2022/05/01 08:30:06;;;;;;;12.15;8.48;;;;;;;8.67;74.96;102605.22;5077747;28;20612;-78
2022/05/01 08:32:31;;;;;;;12.77;9.15;;;;;;;8.72;75.27;102606.94;5048496;28;20255;-78
2022/05/01 08:34:57;;;;;;;12.18;9.20;;;;;;;8.73;75.53;102607.81;5052178;28;20079;-78
2022/05/01 08:37:22;;;;;;;12.02;8.70;;;;;;;8.77;75.52;102609.56;5074101;28;20032;-78
2022/05/01 08:39:48;;;;;;;12.73;8.23;;;;;;;8.80;74.30;102605.19;5059243;28;20036;-78
2022/05/01 08:42:13;;;;;;;9.05;7.45;;;;;;;8.82;74.45;102603.44;5058400;28;20020;-78
2022/05/01 08:44:39;;;;;;;8.93;7.93;;;;;;;8.81;74.05;102601.69;5042462;28;20033;-78
2022/05/01 08:47:22;;;;;;;11.85;8.63;;;;;;;8.87;73.56;102600.78;5042814;28;20093;-78
2022/05/01 08:49:55;;;;;;;11.40;8.43;;;;;;;8.91;73.68;102599.88;5055468;28;20050;-78
2022/05/01 08:52:21;;;;;;;8.07;7.28;;;;;;;8.92;72.29;102596.41;5072301;28;20150;-79
2022/05/01 08:54:48;;;;;;;9.95;7.78;;;;;;;8.95;71.66;102601.63;5075635;28;20075;-79
2022/05/01 08:57:14;;;;;;;8.18;7.45;;;;;;;9.01;72.49;102588.50;5031942;28;20113;-79
2022/05/01 08:59:41;;;;;;;10.18;7.78;;;;;;;9.11;72.01;102596.28;5035088;28;20069;-79
2022/05/01 09:02:10;;;;;;;9.57;7.75;;;;;;;9.16;72.59;102594.50;5073502;28;20028;-79
2022/05/01 09:04:36;;;;;;;7.78;7.00;;;;;;;9.21;72.13;102598.81;5072650;28;20036;-79
2022/05/01 09:07:02;;;;;;;12.75;7.18;;;;;;;9.27;71.23;102599.66;5037983;28;20115;-78
2022/05/01 09:09:27;;;;;;;8.68;7.78;;;;;;;9.31;71.12;102601.38;5055811;28;20353;-78
2022/05/01 09:14:40;;;;;;;11.23;7.28;;;;;;;9.40;70.93;102598.69;5074868;28;20338;-78
2022/05/01 09:17:23;;;;;;;7.68;6.13;;;;;;;9.44;70.61;102603.03;5075390;28;20028;-78
2022/05/01 09:20:03;;;;;;;11.52;6.60;;;;;;;9.52;70.25;102609.06;5071382;28;20343;-79
2022/05/01 09:22:47;;;;;;;7.55;6.53;;;;;;;9.55;70.51;102606.44;5048264;28;20033;-78
2022/05/01 09:25:17;;;;;;;7.32;6.43;;;;;;;9.58;70.00;102601.16;5047054;28;20024;-79
2022/05/01 09:27:42;;;;;;;8.07;6.47;;;;;;;9.63;70.39;102614.19;5074914;28;20236;-78
2022/05/01 09:30:13;;;;;;;6.13;5.55;;;;;;;9.67;69.21;102610.66;5058520;28;20045;-78
2022/05/01 09:32:40;;;;;;;6.90;5.13;;;;;;;9.72;68.72;102606.28;5056819;28;20052;-78
2022/05/01 09:35:10;;;;;;;5.95;5.30;;;;;;;9.86;67.06;102610.50;5059538;28;20029;-79
2022/05/01 09:37:36;;;;;;;6.00;5.22;;;;;;;9.88;66.25;102612.25;5058533;28;20327;-78
2022/05/01 09:40:01;;;;;;;5.82;5.22;;;;;;;9.90;65.87;102612.22;5048005;28;20128;-79
2022/05/01 09:42:33;;;;;;;7.00;4.82;;;;;;;9.91;66.26;102612.19;5073317;28;20033;-78
2022/05/01 09:45:14;;;;;;;5.13;4.63;;;;;;;9.92;64.70;102610.47;5043500;28;20236;-78
2022/05/01 09:47:42;;;;;;;5.47;4.25;;;;;;;9.92;63.53;102616.56;5074607;28;20044;-78
2022/05/01 09:50:09;;;;;;;4.45;4.07;;;;;;;9.91;61.72;102612.19;5056478;28;20060;-78
2022/05/01 09:53:01;;;;;;;3.90;3.60;;;;;;;9.90;63.23;102613.09;5039558;28;20311;-78
2022/05/01 09:55:28;;;;;;;8.27;4.28;;;;;;;9.91;63.63;102620.03;5057699;28;20028;-78
2022/05/01 09:58:07;;;;;;;4.50;3.95;;;;;;;9.93;63.17;102601.72;5074919;28;20041;-78
2022/05/01 10:00:40;;;;;;;4.75;4.22;;;;;;;9.94;64.13;102606.06;5074010;28;20032;-78
2022/05/01 10:03:28;;;;;;;3.70;3.40;;;;;;;9.99;65.33;102609.53;5075014;28;20036;-78
2022/05/01 10:05:54;;;;;;;6.90;4.57;;;;;;;10.05;65.44;102609.44;5078395;28;20236;-78
2022/05/01 10:08:21;;;;;;;4.47;4.07;;;;;;;10.08;65.44;102601.56;5077787;28;20039;-78
2022/05/01 10:10:47;;;;;;;5.60;4.40;;;;;;;10.18;64.15;102604.94;5060371;28;20044;-78
2022/05/01 10:13:14;;;;;;;4.88;4.47;;;;;;;10.19;63.42;102602.31;5060261;28;20055;-80
2022/05/01 10:15:40;;;;;;;4.85;4.20;;;;;;;10.21;63.69;102604.06;5070450;28;20035;-78
2022/05/01 10:18:07;;;;;;;8.27;4.50;;;;;;;10.22;63.27;102605.78;5078276;28;20025;-79
2022/05/01 10:20:34;;;;;;;5.53;5.03;;;;;;;10.18;63.25;102603.19;5061172;28;20243;-79
2022/05/01 10:23:01;;;;;;;7.90;4.85;;;;;;;10.18;63.34;102594.47;5060131;28;20040;-79
2022/05/01 10:25:29;;;;;;;4.97;4.32;;;;;;;10.22;61.71;102597.94;5059302;28;20029;-79
2022/05/01 10:28:18;;;;;;;4.60;4.20;;;;;;;10.26;63.08;102590.03;5078117;28;20032;-79
2022/05/01 10:34:31;;;;;;;5.65;5.05;;;;;;;10.45;64.38;102590.69;5069032;28;20031;-79
2022/05/01 10:37:24;;;;;;;5.15;4.22;;;;;;;10.57;64.32;102592.31;5070430;28;20596;-79
2022/05/01 10:39:51;;;;;;;5.07;4.20;;;;;;;10.63;64.49;102580.91;5065640;28;20040;-79
2022/05/01 10:42:38;;;;;;;5.20;4.70;;;;;;;10.66;62.23;102578.22;5077731;28;20078;-79
2022/05/01 10:45:24;;;;;;;5.05;4.30;;;;;;;10.70;61.85;102574.69;5077905;28;20037;-79
2022/05/01 10:47:56;;;;;;;5.47;4.32;;;;;;;10.73;60.57;102572.00;5064538;28;20052;-79
2022/05/01 10:50:23;;;;;;;5.63;4.57;;;;;;;10.78;60.82;102566.72;5075727;28;20048;-79
2022/05/01 10:53:09;;;;;;;5.70;4.03;;;;;;;10.85;60.68;102568.34;5064772;28;20436;-79
2022/05/01 10:56:14;;;;;;;5.78;4.63;;;;;;;10.97;60.39;102562.94;5060418;28;20157;-78
2022/05/01 10:58:39;;;;;;;5.85;4.57;;;;;;;11.02;61.30;102562.84;5078493;28;20338;-78
2022/05/01 11:01:04;;;;;;;5.90;5.05;;;;;;;11.03;59.26;102561.97;5061344;28;20048;-78
2022/05/01 11:03:32;;;;;;;6.03;4.88;;;;;;;11.05;58.23;102560.19;5062064;28;20040;-78
2022/05/01 11:06:04;;;;;;;4.53;4.13;;;;;;;11.08;60.04;102560.16;5078897;28;20025;-78
2022/05/01 11:08:37;;;;;;;7.20;5.10;;;;;;;11.09;58.50;102546.16;5078405;28;20052;-78
2022/05/01 11:11:05;;;;;;;5.05;4.47;;;;;;;11.11;59.10;102545.25;5063798;28;20029;-78
2022/05/01 11:13:36;;;;;;;4.53;4.13;;;;;;;11.16;58.41;102544.31;5060327;28;20032;-78
2022/05/01 11:16:03;;;;;;;7.53;4.50;;;;;;;11.18;59.16;102535.50;5077768;28;20020;-78
2022/05/01 11:18:50;;;;;;;5.78;4.22;;;;;;;11.28;61.16;102531.00;5065219;28;20033;-78
2022/05/01 11:21:24;;;;;;;5.30;4.45;;;;;;;11.39;61.11;102529.06;5068181;28;20370;-78
2022/05/01 11:24:13;;;;;;;5.00;4.53;;;;;;;11.52;60.73;102530.56;5060891;28;20339;-78
2022/05/01 11:27:10;;;;;;;9.35;4.20;;;;;;;11.60;58.81;102519.91;5078892;28;20028;-78
2022/05/01 11:29:36;;;;;;;4.82;4.38;;;;;;;11.65;58.64;102518.09;5077686;28;20036;-78
2022/05/01 11:32:20;;;;;;;4.57;4.18;;;;;;;11.69;59.35;102521.50;5072480;28;20036;-78
2022/05/01 11:34:50;;;;;;;4.55;3.65;;;;;;;11.70;59.15;102516.25;5072224;28;20044;-78
2022/05/01 11:37:17;;;;;;;6.75;4.28;;;;;;;11.74;59.03;102519.69;5062800;28;20044;-78
2022/05/01 11:39:51;;;;;;;4.47;3.58;;;;;;;11.76;58.28;102506.53;5078117;28;20024;-78
2022/05/01 11:42:25;;;;;;;5.75;4.18;;;;;;;11.76;56.78;102512.63;5077881;28;20036;-78
2022/05/01 11:44:52;;;;;;;3.83;3.53;;;;;;;11.74;56.72;102500.44;5060118;28;20107;-78
2022/05/01 11:47:19;;;;;;;4.28;3.60;;;;;;;11.72;56.80;102503.97;5059617;28;20186;-79
2022/05/01 11:49:45;;;;;;;4.20;3.83;;;;;;;11.75;56.16;102500.44;5044138;28;20396;-79
2022/05/01 11:52:11;;;;;;;4.43;4.03;;;;;;;11.83;57.03;102500.28;5047238;28;20027;-79
2022/05/01 11:54:40;;;;;;;4.93;4.43;;;;;;;11.86;56.48;102501.06;5043465;28;20039;-79